createdAt,value
2019-02-10T03:32:09.833Z,71.90
2019-02-10T03:34:38.923Z,71.80
2019-02-10T03:37:08.043Z,72.20
2019-02-10T03:39:37.140Z,72.10
2019-02-10T03:42:06.307Z,72.20
2019-02-10T03:44:35.415Z,72.40
2019-02-10T03:47:04.506Z,72.10
2019-02-10T03:49:33.603Z,72.20
2019-02-10T03:52:04.458Z,72.20
2019-02-10T03:54:33.571Z,72.30
2019-02-10T03:57:04.491Z,72.20
2019-02-10T03:59:33.592Z,72.40
2019-02-10T04:02:03.596Z,71.90
2019-02-10T04:04:32.691Z,72.00
2019-02-10T04:07:01.783Z,72.10
2019-02-10T04:09:30.906Z,72.30
2019-02-10T04:12:00.015Z,72.40
2019-02-10T04:14:29.132Z,72.40
2019-02-10T04:16:58.247Z,72.30
2019-02-10T04:19:27.347Z,72.30
2019-02-10T04:21:56.468Z,72.60
2019-02-10T04:24:25.606Z,72.60
2019-02-10T04:26:54.749Z,72.50
2019-02-10T04:29:23.864Z,73.00
2019-02-10T04:31:52.958Z,72.30
2019-02-10T04:34:22.057Z,72.30
2019-02-10T04:36:51.170Z,72.40
2019-02-10T04:39:20.266Z,72.40
2019-02-10T04:41:49.386Z,72.20
2019-02-10T04:44:18.498Z,72.20
2019-02-10T04:46:47.603Z,72.20
2019-02-10T04:49:16.708Z,72.20
2019-02-10T04:51:45.803Z,72.00
2019-02-10T04:54:14.912Z,71.90
2019-02-10T04:56:43.999Z,71.70
2019-02-10T04:59:13.138Z,71.90
2019-02-10T05:01:42.252Z,71.50
2019-02-10T05:04:11.322Z,71.20
2019-02-10T05:06:40.429Z,71.30
2019-02-10T05:09:09.541Z,71.20
2019-02-10T05:11:38.631Z,71.10
2019-02-10T05:14:07.730Z,71.10
2019-02-10T05:16:36.867Z,71.00
2019-02-10T05:19:06.012Z,70.80
2019-02-10T05:21:35.107Z,71.00
2019-02-10T05:24:04.232Z,71.00
2019-02-10T05:26:33.322Z,70.90
2019-02-10T05:29:02.421Z,70.70
2019-02-10T05:31:31.536Z,70.70
2019-02-10T05:34:00.941Z,70.90
2019-02-10T05:36:30.242Z,71.00
2019-02-10T05:38:59.360Z,71.70
2019-02-10T05:41:28.463Z,72.90
2019-02-10T05:43:57.575Z,73.80
2019-02-10T05:46:26.682Z,73.30
2019-02-10T05:48:55.806Z,73.80
2019-02-10T05:51:24.891Z,74.50
2019-02-10T05:53:53.996Z,75.20
2019-02-10T05:56:23.112Z,76.40
2019-02-10T05:58:52.205Z,76.50
2019-02-10T06:01:58.680Z,76.50
2019-02-10T06:04:28.500Z,76.50
2019-02-10T06:07:03.113Z,77.30
2019-02-10T06:09:32.216Z,77.60
2019-02-10T06:12:02.661Z,78.20
2019-02-10T06:14:31.760Z,78.10
2019-02-10T06:17:01.147Z,77.60
2019-02-10T06:19:31.802Z,76.80
2019-02-10T06:22:02.222Z,78.40
2019-02-10T06:24:31.386Z,77.90
2019-02-10T06:27:00.497Z,78.30
2019-02-10T06:29:29.738Z,78.80
2019-02-10T06:31:58.847Z,78.90
2019-02-10T06:34:27.938Z,79.40
2019-02-10T06:36:57.178Z,78.80
2019-02-10T06:39:26.273Z,78.90
2019-02-10T06:41:55.379Z,79.10
2019-02-10T06:44:24.498Z,79.40
2019-02-10T06:46:53.587Z,79.20
2019-02-10T06:49:22.703Z,79.30
2019-02-10T06:51:51.811Z,79.30
2019-02-10T06:54:21.828Z,79.20
2019-02-10T06:56:50.943Z,79.40
2019-02-10T06:59:30.912Z,79.80
2019-02-10T07:02:01.639Z,80.30
2019-02-10T07:04:32.583Z,80.60
2019-02-10T07:07:03.793Z,80.60
2019-02-10T07:09:32.887Z,80.90
2019-02-10T07:12:07.918Z,80.90
2019-02-10T07:14:37.038Z,82.00
2019-02-10T07:17:18.117Z,80.90
2019-02-10T07:20:18.576Z,80.90
2019-02-10T07:22:51.292Z,81.20
2019-02-10T07:25:40.944Z,81.40
2019-02-10T07:28:13.507Z,82.30
2019-02-10T07:30:51.522Z,81.30
2019-02-10T07:33:26.771Z,82.00
2019-02-10T07:36:15.619Z,81.10
2019-02-10T07:38:59.758Z,81.10
2019-02-10T07:41:40.839Z,81.40
2019-02-10T07:44:16.176Z,80.50
2019-02-10T07:46:56.953Z,80.40
2019-02-10T07:49:32.157Z,80.50
2019-02-10T07:52:11.291Z,80.40
2019-02-10T07:54:49.251Z,80.30
2019-02-10T07:57:30.449Z,80.70
2019-02-10T08:00:05.881Z,81.40
2019-02-10T08:02:38.224Z,80.40
2019-02-10T08:05:34.840Z,80.50
2019-02-10T08:08:15.432Z,82.20
2019-02-10T08:11:13.542Z,79.90
2019-02-10T08:13:57.641Z,79.00
2019-02-10T08:16:38.284Z,80.20
2019-02-10T08:19:22.435Z,79.50
2019-02-10T08:21:57.344Z,80.10
2019-02-10T08:24:32.437Z,79.80
2019-02-10T08:27:37.910Z,79.80
2019-02-10T08:30:25.335Z,80.30
2019-02-10T08:33:06.611Z,80.40
2019-02-10T08:35:47.715Z,79.70
2019-02-10T08:38:23.023Z,80.20
2019-02-10T08:40:55.371Z,81.10
2019-02-10T08:44:03.467Z,81.10
2019-02-10T08:46:41.634Z,80.10
2019-02-10T08:49:31.966Z,81.10
2019-02-10T08:52:07.291Z,81.20
2019-02-10T08:54:36.419Z,81.70
2019-02-10T08:57:05.509Z,81.90
2019-02-10T08:59:34.595Z,82.30
2019-02-10T09:02:03.726Z,82.00
2019-02-10T09:04:32.824Z,81.70
2019-02-10T09:07:03.031Z,83.00
2019-02-10T09:09:32.131Z,81.60
2019-02-10T09:12:02.546Z,81.10
2019-02-10T09:14:31.687Z,80.50
2019-02-10T09:17:00.784Z,79.80
2019-02-10T09:19:30.685Z,80.20
2019-02-10T09:21:59.770Z,82.80
2019-02-10T09:24:30.631Z,82.90
2019-02-10T09:26:59.724Z,83.30
2019-02-10T09:29:28.850Z,83.10
2019-02-10T09:31:57.947Z,83.90
2019-02-10T09:34:27.042Z,83.30
2019-02-10T09:36:56.174Z,83.50
2019-02-10T09:39:25.267Z,83.60
2019-02-10T09:41:54.474Z,83.90
2019-02-10T09:44:23.569Z,83.90
2019-02-10T09:46:52.663Z,84.40
2019-02-10T09:49:21.799Z,83.70
2019-02-10T09:51:50.923Z,83.90
2019-02-10T09:54:20.020Z,84.40
2019-02-10T09:56:49.122Z,84.40
2019-02-10T09:59:18.547Z,84.60
2019-02-10T10:01:47.647Z,84.70
2019-02-10T10:04:16.778Z,84.80
2019-02-10T10:06:45.919Z,84.00
2019-02-10T10:09:19.508Z,85.60
2019-02-10T10:11:45.843Z,84.10
2019-02-10T10:14:14.939Z,84.10
2019-02-10T10:16:44.030Z,84.50
2019-02-10T10:19:13.173Z,84.20
2019-02-10T10:21:42.258Z,84.60
2019-02-10T10:24:11.429Z,84.60
2019-02-10T10:26:40.762Z,83.70
2019-02-10T10:29:09.887Z,84.20
2019-02-10T10:31:38.975Z,84.30
2019-02-10T10:34:08.115Z,82.60
2019-02-10T10:36:37.255Z,81.80
2019-02-10T10:39:06.760Z,82.20
2019-02-10T10:41:35.854Z,82.00
2019-02-10T10:44:04.979Z,81.40
2019-02-10T10:46:34.110Z,82.50
2019-02-10T10:49:03.211Z,83.40
2019-02-10T10:51:32.342Z,82.20
2019-02-10T10:54:02.685Z,83.00
2019-02-10T10:56:31.775Z,83.30
2019-02-10T10:59:02.618Z,83.20
2019-02-10T11:01:31.707Z,83.30
2019-02-10T11:04:02.559Z,84.30
2019-02-10T11:06:31.650Z,83.30
2019-02-10T11:09:02.487Z,83.10
2019-02-10T11:11:32.593Z,83.40
2019-02-10T11:14:02.412Z,84.10
2019-02-10T11:16:31.810Z,85.10
2019-02-10T11:19:01.847Z,85.10
2019-02-10T11:21:31.039Z,84.30
2019-02-10T11:24:00.135Z,85.20
2019-02-10T11:26:31.213Z,86.20
2019-02-10T11:29:00.302Z,86.90
2019-02-10T11:31:31.034Z,87.10
2019-02-10T11:34:00.176Z,86.50
2019-02-10T11:36:30.726Z,86.90
2019-02-10T11:38:59.870Z,86.80
2019-02-10T11:41:32.419Z,85.70
2019-02-10T11:44:01.510Z,85.20
2019-02-10T11:46:43.683Z,87.90
2019-02-10T11:49:12.778Z,88.90
2019-02-10T11:51:41.918Z,89.00
2019-02-10T11:54:11.298Z,89.20
2019-02-10T11:56:40.435Z,89.10
2019-02-10T11:59:09.526Z,89.80
2019-02-10T12:01:38.623Z,89.70
2019-02-10T12:04:07.853Z,89.60
2019-02-10T12:06:36.937Z,89.10
2019-02-10T12:09:06.396Z,89.40
2019-02-10T12:11:35.528Z,89.10
2019-02-10T12:14:04.674Z,89.70
2019-02-10T12:16:33.766Z,89.30
2019-02-10T12:19:03.811Z,88.80
2019-02-10T12:21:32.938Z,88.40
2019-02-10T12:24:03.335Z,87.20
2019-02-10T12:26:32.822Z,87.40
2019-02-10T12:29:02.369Z,86.30
2019-02-10T12:31:31.495Z,87.70
2019-02-10T12:34:00.591Z,88.60
2019-02-10T12:36:29.688Z,88.90
2019-02-10T12:38:58.814Z,89.60
2019-02-10T12:41:27.955Z,89.20
2019-02-10T12:43:57.049Z,89.20
2019-02-10T12:46:26.428Z,88.80
2019-02-10T12:48:55.527Z,89.10
2019-02-10T12:51:24.618Z,88.70
2019-02-10T12:53:53.760Z,88.80
2019-02-10T12:56:22.842Z,87.80
2019-02-10T12:58:51.943Z,88.10
2019-02-10T13:01:21.081Z,88.40
2019-02-10T13:03:50.179Z,88.90
2019-02-10T13:06:19.274Z,87.70
2019-02-10T13:08:48.646Z,87.70
2019-02-10T13:11:17.735Z,87.40
2019-02-10T13:13:46.884Z,86.80
2019-02-10T13:16:15.974Z,87.00
2019-02-10T13:18:45.076Z,86.70
2019-02-10T13:21:14.211Z,86.80
2019-02-10T13:23:43.312Z,86.70
2019-02-10T13:26:12.446Z,87.00
2019-02-10T13:28:41.892Z,87.20
2019-02-10T13:31:10.991Z,87.00
2019-02-10T13:33:40.136Z,86.40
2019-02-10T13:36:09.235Z,86.80
2019-02-10T13:38:38.331Z,86.60
2019-02-10T13:41:07.475Z,86.70
2019-02-10T13:43:36.582Z,86.70
2019-02-10T13:46:05.683Z,87.10
2019-02-10T13:48:34.826Z,86.20
2019-02-10T13:51:04.212Z,86.20
2019-02-10T13:53:33.416Z,85.50
2019-02-10T13:56:03.203Z,85.30
2019-02-10T13:58:32.303Z,85.60
2019-02-10T14:01:02.833Z,85.10
2019-02-10T14:03:31.973Z,85.40
2019-02-10T14:06:02.962Z,85.60
2019-02-10T14:08:32.106Z,85.70
2019-02-10T14:11:02.291Z,85.50
2019-02-10T14:13:31.395Z,85.50
2019-02-10T14:16:00.874Z,84.40
2019-02-10T14:18:29.967Z,85.20
2019-02-10T14:20:59.111Z,85.00
2019-02-10T14:23:28.211Z,83.80
2019-02-10T14:25:57.354Z,83.90
2019-02-10T14:28:26.499Z,83.50
2019-02-10T14:30:55.593Z,83.30
2019-02-10T14:33:24.739Z,83.30
2019-02-10T14:35:54.159Z,83.00
2019-02-10T14:38:24.717Z,83.40
2019-02-10T14:40:53.980Z,84.00
2019-02-10T14:43:23.397Z,84.20
2019-02-10T14:45:52.500Z,83.80
2019-02-10T14:48:21.636Z,83.40
2019-02-10T14:50:50.778Z,82.90
2019-02-10T14:53:19.870Z,83.80
2019-02-10T14:55:48.962Z,83.70
2019-02-10T14:58:18.111Z,83.50
2019-02-10T15:00:47.198Z,83.30
2019-02-10T15:03:16.347Z,83.40
2019-02-10T15:05:45.443Z,83.70
2019-02-10T15:08:14.551Z,83.50
2019-02-10T15:10:43.700Z,83.70
2019-02-10T15:13:12.794Z,83.10
2019-02-10T15:15:41.897Z,83.10
2019-02-10T15:18:11.044Z,83.00
2019-02-10T15:20:40.145Z,82.90
2019-02-10T15:23:09.559Z,82.30
2019-02-10T15:25:38.699Z,81.40
2019-02-10T15:28:07.794Z,80.80
2019-02-10T15:30:36.935Z,81.10
2019-02-10T15:33:06.372Z,81.40
2019-02-10T15:35:35.595Z,81.10
2019-02-10T15:38:04.741Z,81.10
2019-02-10T15:40:33.849Z,81.70
2019-02-10T15:43:04.935Z,81.30
2019-02-10T15:45:34.043Z,80.10
2019-02-10T15:48:03.643Z,79.70
2019-02-10T15:50:32.785Z,79.60
2019-02-10T15:53:04.092Z,79.10
2019-02-10T15:55:33.234Z,78.20
2019-02-10T15:58:02.555Z,79.00
2019-02-10T16:00:32.534Z,79.30
2019-02-10T16:03:02.071Z,78.80
2019-02-10T16:05:31.168Z,78.90
2019-02-10T16:08:00.479Z,78.50
2019-02-10T16:10:32.019Z,78.70
2019-02-10T16:13:01.751Z,77.40
2019-02-10T16:15:30.900Z,78.10
2019-02-10T16:18:01.358Z,78.50
2019-02-10T16:20:30.460Z,77.40
2019-02-10T16:22:59.607Z,78.10
2019-02-10T16:25:28.694Z,80.90
2019-02-10T16:27:57.871Z,83.80
2019-02-10T16:30:27.350Z,85.10
2019-02-10T16:32:56.446Z,86.10
2019-02-10T16:35:25.564Z,85.40
2019-02-10T16:37:54.952Z,85.40
2019-02-10T16:40:24.086Z,84.70
2019-02-10T16:42:53.191Z,85.10
2019-02-10T16:45:22.279Z,85.10
2019-02-10T16:47:51.424Z,84.90
2019-02-10T16:50:20.507Z,84.60
2019-02-10T16:52:49.646Z,83.90
2019-02-10T16:55:21.821Z,83.80
2019-02-10T16:57:51.203Z,83.80
2019-02-10T17:00:20.303Z,83.90
2019-02-10T17:02:49.443Z,83.80
2019-02-10T17:05:18.539Z,84.30
2019-02-10T17:07:47.681Z,84.80
2019-02-10T17:10:19.468Z,84.50
2019-02-10T17:12:48.607Z,84.30
2019-02-10T17:15:17.699Z,83.80
2019-02-10T17:17:46.837Z,83.90
2019-02-10T17:20:16.558Z,84.40
2019-02-10T17:22:45.960Z,84.40
2019-02-10T17:25:20.901Z,84.60
2019-02-10T17:27:51.575Z,84.90
2019-02-10T17:30:20.663Z,85.00
2019-02-10T17:32:49.759Z,84.60
2019-02-10T17:35:18.898Z,84.00
2019-02-10T17:37:48.040Z,84.00
2019-02-10T17:40:35.577Z,84.10
2019-02-10T17:43:04.715Z,84.00
2019-02-10T17:45:33.810Z,84.00
2019-02-10T17:48:03.535Z,83.80
2019-02-10T17:50:32.666Z,84.00
2019-02-10T17:53:03.296Z,83.80
2019-02-10T17:55:32.391Z,83.40
2019-02-10T17:58:03.067Z,83.30
2019-02-10T18:00:33.843Z,86.20
2019-02-10T18:03:03.167Z,87.50
2019-02-10T18:05:32.254Z,87.50
2019-02-10T18:08:02.591Z,88.70
2019-02-10T18:10:31.731Z,88.80
2019-02-10T18:13:00.834Z,88.70
2019-02-10T18:15:31.574Z,87.10
2019-02-10T18:18:05.615Z,86.60
2019-02-10T18:20:39.537Z,86.90
2019-02-10T18:23:12.961Z,87.00
2019-02-10T18:25:43.736Z,87.50
2019-02-10T18:28:14.514Z,86.10
2019-02-10T18:30:51.188Z,87.50
2019-02-10T18:33:21.974Z,86.10
2019-02-10T18:36:09.883Z,86.10
2019-02-10T18:38:59.727Z,86.20
2019-02-10T18:41:42.117Z,85.60
2019-02-10T18:44:12.903Z,85.30
2019-02-10T18:46:52.342Z,85.00
2019-02-10T18:49:29.087Z,85.50
2019-02-10T18:52:16.111Z,85.20
2019-02-10T18:54:46.890Z,84.60
2019-02-10T18:57:26.654Z,84.80
2019-02-10T19:00:06.276Z,84.60
2019-02-10T19:02:37.074Z,84.10
2019-02-10T19:05:24.688Z,84.40
2019-02-10T19:07:55.423Z,83.80
2019-02-10T19:10:42.443Z,83.80
2019-02-10T19:13:13.183Z,83.60
2019-02-10T19:15:44.227Z,84.10
2019-02-10T19:18:15.101Z,83.80
2019-02-10T19:21:02.361Z,83.60
2019-02-10T19:23:45.402Z,83.10
2019-02-10T19:26:32.553Z,84.10
2019-02-10T19:29:20.786Z,84.30
2019-02-10T19:31:54.246Z,84.80
2019-02-10T19:34:41.805Z,85.80
2019-02-10T19:37:12.891Z,86.10
2019-02-10T19:39:46.359Z,87.00
2019-02-10T19:42:17.084Z,87.60
2019-02-10T19:44:56.851Z,87.10
2019-02-10T19:47:30.296Z,86.10
2019-02-10T19:50:01.911Z,86.00
2019-02-10T19:52:32.641Z,86.10
2019-02-10T19:55:16.440Z,86.30
2019-02-10T19:57:51.234Z,85.00
2019-02-10T20:00:21.962Z,84.20
2019-02-10T20:02:52.746Z,83.90
2019-02-10T20:05:23.516Z,84.10
2019-02-10T20:08:06.362Z,83.60
2019-02-10T20:10:37.096Z,83.80
2019-02-10T20:13:10.918Z,83.40
2019-02-10T20:15:47.906Z,83.50
2019-02-10T20:18:18.643Z,83.10
2019-02-10T20:20:49.422Z,83.40
2019-02-10T20:23:20.459Z,83.40
2019-02-10T20:25:57.427Z,83.10
2019-02-10T20:28:31.341Z,82.50
2019-02-10T20:31:06.280Z,83.20
2019-02-10T20:33:39.904Z,83.10
2019-02-10T20:36:10.635Z,82.60
2019-02-10T20:38:47.132Z,81.90
2019-02-10T20:41:17.875Z,81.20
2019-02-10T20:43:52.510Z,81.70
2019-02-10T20:46:26.157Z,81.70
2019-02-10T20:49:02.639Z,82.10
2019-02-10T20:51:42.911Z,81.70
2019-02-10T20:54:14.659Z,81.10
2019-02-10T20:56:51.394Z,81.20
2019-02-10T20:59:27.829Z,81.40
2019-02-10T21:02:15.739Z,80.70
2019-02-10T21:04:52.265Z,81.40
2019-02-10T21:07:25.924Z,81.60
2019-02-10T21:10:02.733Z,82.10
2019-02-10T21:12:49.951Z,82.50
2019-02-10T21:15:29.991Z,83.30
2019-02-10T21:18:03.659Z,83.70
2019-02-10T21:20:34.443Z,84.30
2019-02-10T21:23:11.083Z,84.00
2019-02-10T21:25:41.831Z,83.90
2019-02-10T21:28:30.664Z,85.00
2019-02-10T21:31:10.367Z,85.70
2019-02-10T21:33:41.452Z,85.70
2019-02-10T21:36:30.488Z,86.00
2019-02-10T21:39:07.450Z,87.20
2019-02-10T21:41:38.208Z,86.90
2019-02-10T21:44:21.023Z,86.70
2019-02-10T21:47:00.660Z,87.40
2019-02-10T21:49:30.100Z,88.80
2019-02-10T21:51:59.238Z,87.20
2019-02-10T21:54:28.322Z,86.70
2019-02-10T21:56:57.421Z,87.70
2019-02-10T21:59:26.560Z,86.90
2019-02-10T22:01:55.657Z,87.40
2019-02-10T22:04:24.751Z,87.60
2019-02-10T22:06:54.189Z,88.60
2019-02-10T22:09:23.276Z,88.70
2019-02-10T22:11:52.390Z,88.70
2019-02-10T22:14:21.526Z,88.90
2019-02-10T22:16:50.642Z,89.40
2019-02-10T22:19:19.755Z,89.60
2019-02-10T22:21:48.873Z,89.10
2019-02-10T22:24:17.965Z,89.10
2019-02-10T22:26:47.078Z,89.10
2019-02-10T22:29:16.171Z,88.60
2019-02-10T22:31:45.271Z,89.30
2019-02-10T22:34:14.375Z,89.20
2019-02-10T22:36:43.474Z,90.20
2019-02-10T22:39:12.559Z,90.30
2019-02-10T22:41:41.663Z,89.80
2019-02-10T22:44:10.752Z,89.80
2019-02-10T22:46:39.865Z,89.90
2019-02-10T22:49:08.959Z,89.60
2019-02-10T22:51:38.063Z,89.20
2019-02-10T22:54:07.166Z,88.80
2019-02-10T22:56:36.257Z,87.60
2019-02-10T22:59:06.446Z,87.40
2019-02-10T23:01:35.572Z,88.40
2019-02-10T23:04:04.945Z,88.30
2019-02-10T23:06:34.043Z,88.60
2019-02-10T23:09:05.084Z,88.60
2019-02-10T23:11:34.178Z,88.40
2019-02-10T23:14:03.296Z,88.70
